Hampton, SC

5:01 AM EST on December 21, 2014 (GMT -0500)
Plantation | Change Station
CLOSE
Current Station
Airport
Location: Sylvania,
Elevation: 187 ft
Nearby Weather Stations

Elev 187 ft 32.65 °N, 81.60 °W | Updated 26 minutes ago

Overcast
Overcast
47 °F
Feels Like 47 °F
N
7
Wind Variable Wind from NNE

Today
High -- | Low -- °F
--% Chance of Precip.
Yesterday
High -- | Low -- °F
Precip. -- in
7:23 AM 5:21 PM
Waning Crescent, 1% visible
Pressure 30.19 in
Visibility 5.0 miles
Clouds Overcast 300 ft
Dew Point 47 °F
Humidity 100%
Rainfall 0.00 in
Snow Depth Not available.
UV 0 out of 12
Pollen .50 out of 12
Air Quality Not available.
Flu Activity Not available.
METAR KJYL 210935Z AUTO 03006KT 5SM BR OVC003 08/08 A3019 RMK AO2 T00830083

More Conditions Fewer Conditions

Pressure 30.19 in
Visibility 5.0 miles
Clouds Overcast 300 ft
Dew Point 47 °F
Humidity 100%
Rainfall 0.00 in
Snow Depth Not available.
UV 0 out of 12
Pollen .50 out of 12
Air Quality Not available.
Flu Activity Not available.
METAR KJYL 210935Z AUTO 03006KT 5SM BR OVC003 08/08 A3019 RMK AO2 T00830083

More Conditions Fewer Conditions

10-Day Weather Forecast

Almanac

Astronomy

Dec. 21, 2014 Rise Set
Actual Time
Civil Twilight
Nautical Twilight
Astronomical Twilight
Moon
Length of Visible Light
Length of Day
Tomorrow will be .
, % of the Moon is Illuminated

Today's Extremes

State Highs State Lows

Community

WunderPhotos

Upload Photos

1,779,364 photos uploaded!

WunderBlogs® & News

Nearby

Air Quality

  Air Quality AQ Index Pollutant
Not available.

Snow Depth

Station Depth Elevation

Earthquake Activity

City Distance Mag. Time & Date
Minimum magnitude displayed is 2.5.

Coastal Water Temperatures

Place Temperature

Nearby Weather Stations